Mushaf Air Base


Codes: OPSR/SGI
Name: Mushaf Air Base
City: Sargodha
Country: Pakistan
Elevation: 614 ft.
Wikipedia:

Photos at Mushaf Air Base


   Photos courtesy of SpottingLog. You can add your own sightings and photos by signing up for a free trial today.



No photos found.

Weather at Mushaf Air Base


Time (UTC)DescriptionTempratureWindCloud coverageVisibilityPressureHumidity
25-Jun-2024 12:00Clear Sky46°C7 mph, S4%10000m991hPa10%
25-Jun-2024 15:00Clear Sky45°C7 mph, S6%10000m991hPa11%
25-Jun-2024 18:00Few Clouds42°C4 mph, SW13%10000m992hPa14%
25-Jun-2024 21:00Clear Sky37°C7 mph, NW0%10000m993hPa22%
26-Jun-2024 00:00Clear Sky36°C7 mph, N0%10000m993hPa22%
26-Jun-2024 03:00Clear Sky41°C9 mph, NE3%10000m995hPa16%
26-Jun-2024 06:00Clear Sky47°C2 mph, N2%10000m994hPa11%
26-Jun-2024 09:00Clear Sky48°C4 mph, NW1%10000m992hPa9%
26-Jun-2024 12:00Clear Sky48°C4 mph, NW4%10000m990hPa9%
26-Jun-2024 15:00Scattered Clouds44°C4 mph, W35%10000m991hPa12%
26-Jun-2024 18:00Few Clouds41°C7 mph, NW22%10000m993hPa14%
26-Jun-2024 21:00Clear Sky39°C7 mph, SW0%10000m993hPa17%
27-Jun-2024 00:00Clear Sky36°C7 mph, SW0%10000m993hPa28%
27-Jun-2024 03:00Clear Sky42°C7 mph, W0%10000m994hPa21%
27-Jun-2024 06:00Clear Sky48°C4 mph, NW0%10000m993hPa10%
27-Jun-2024 09:00Clear Sky50°C4 mph, NW2%10000m991hPa8%
27-Jun-2024 12:00Clear Sky50°C9 mph, W6%10000m989hPa8%
27-Jun-2024 15:00Broken Clouds45°C7 mph, SW72%10000m989hPa10%
27-Jun-2024 18:00Scattered Clouds42°C9 mph, W36%10000m991hPa14%
27-Jun-2024 21:00Clear Sky39°C2 mph, SW0%10000m991hPa21%
28-Jun-2024 00:00Clear Sky36°C11 mph, NE0%10000m992hPa24%
28-Jun-2024 03:00Clear Sky42°C11 mph, SE0%10000m993hPa19%
28-Jun-2024 06:00Clear Sky46°C9 mph, E1%10000m993hPa16%
28-Jun-2024 09:00Clear Sky49°C11 mph, NE3%10000m990hPa14%
28-Jun-2024 12:00Clear Sky49°C11 mph, NE5%10000m988hPa13%
28-Jun-2024 15:00Few Clouds44°C9 mph, NE13%10000m989hPa17%
28-Jun-2024 18:00Few Clouds42°C11 mph, SE24%10000m990hPa20%
28-Jun-2024 21:00Clear Sky39°C13 mph, SW9%10000m990hPa28%
29-Jun-2024 00:00Clear Sky37°C7 mph, S4%10000m991hPa34%
29-Jun-2024 03:00Clear Sky39°C9 mph, S0%10000m993hPa31%
29-Jun-2024 06:00Clear Sky44°C9 mph, SE0%10000m993hPa24%
29-Jun-2024 09:00Clear Sky47°C9 mph, S0%10000m990hPa18%
29-Jun-2024 12:00Clear Sky48°C9 mph, S0%10000m988hPa15%
29-Jun-2024 15:00Clear Sky44°C9 mph, S0%10000m989hPa18%
29-Jun-2024 18:00Clear Sky42°C9 mph, SW0%10000m990hPa21%
29-Jun-2024 21:00Clear Sky39°C9 mph, SW2%10000m990hPa28%
30-Jun-2024 00:00Clear Sky37°C4 mph, S1%10000m991hPa34%
30-Jun-2024 03:00Clear Sky39°C9 mph, S0%10000m992hPa32%
30-Jun-2024 06:00Clear Sky43°C9 mph, S0%10000m991hPa25%
30-Jun-2024 09:00Clear Sky47°C9 mph, S0%10000m988hPa19%